»·PEaware :: N2291U KSNA-KBUR

N2291U :: KSNA-KBUR

FLIGHT INFORMATION

Flight Status: Arrived
Operator: Privately registered:
United States
More flights under this callsign
Pilot: Brett S. (30329)
Aircraft: CESSNA 172 SKYHAWK
(C172)
More flights by this aircraft type
Origin: KSNA John Wayne-Orange Co
United States
Destination: KBUR Bob Hope-Burbank
United States
More flights between these airports :: More routes between these airports
Route: +SLI V23 POPPR SMO125 SMO SMO311 SILEX+
File this flight plan on PilotEdge
Remarks:
Altitude:
(Current/Filed)
4,000ft
Speed:
(Current/Filed)
110kts
Departed: 30-Nov-20 11:59 AM
Arrived: 30-Nov-20 12:40 PM
Distance/Time
Traveled:
40nm/0:41
Distance/Time
To Go:
Arrived

Flight Plot

Page will automatically refresh every two minutes.


Map Options




Map Legend


Flown Route
Filed Route
Departure Airport
Arrival Airport
Navaid (VOR, NDB)
Fix

Horizontal Profiles

Position Reports

Time Latitude Longitude Heading Altitude Ground
Speed
30-Nov-20 11:41 33.675230 -117.871260 24 59ft 0kts
30-Nov-20 11:42 33.675231 -117.871260 24 59ft 0kts
30-Nov-20 11:43 33.675231 -117.871260 24 59ft 0kts
30-Nov-20 11:44 33.675231 -117.871259 24 59ft 0kts
30-Nov-20 11:45 33.675232 -117.871259 24 59ft 0kts
30-Nov-20 11:46 33.675232 -117.871259 24 59ft 0kts
30-Nov-20 11:47 33.675233 -117.871259 24 59ft 0kts
30-Nov-20 11:48 33.675233 -117.871259 24 59ft 0kts
30-Nov-20 11:49 33.675233 -117.871258 24 59ft 0kts
30-Nov-20 11:50 33.675234 -117.871258 24 59ft 0kts
30-Nov-20 11:51 33.675234 -117.871258 24 59ft 0kts
30-Nov-20 11:52 33.675234 -117.871258 24 59ft 0kts
30-Nov-20 11:53 33.677209 -117.869384 28 59ft 22kts
30-Nov-20 11:54 33.681185 -117.866633 105 59ft 0kts
30-Nov-20 11:55 33.681185 -117.866633 105 59ft 0kts
30-Nov-20 11:56 33.681103 -117.866264 107 59ft 7kts
30-Nov-20 11:57 33.679583 -117.866348 208 59ft 32kts
30-Nov-20 11:58 33.662673 -117.880420 231 1088ft 72kts
30-Nov-20 11:59 33.650303 -117.899271 230 2294ft 71kts
30-Nov-20 12:00 33.655611 -117.917733 311 3387ft 69kts
30-Nov-20 12:01 33.670179 -117.936278 312 4080ft 100kts
30-Nov-20 12:02 33.691111 -117.963367 312 4002ft 112kts
30-Nov-20 12:03 33.706793 -117.995639 298 4003ft 112kts
30-Nov-20 12:04 33.721900 -118.028339 299 4002ft 112kts
30-Nov-20 12:05 33.736675 -118.060009 299 4001ft 105kts
30-Nov-20 12:06 33.751198 -118.091143 299 4003ft 107kts
30-Nov-20 12:07 33.765739 -118.122338 299 4002ft 107kts
30-Nov-20 12:08 33.780312 -118.153630 299 4002ft 107kts
30-Nov-20 12:09 33.794873 -118.184922 299 4002ft 107kts
30-Nov-20 12:10 33.809398 -118.216166 299 4002ft 107kts
30-Nov-20 12:11 33.823939 -118.247472 299 4002ft 107kts
30-Nov-20 12:12 33.838477 -118.278798 299 4002ft 107kts
30-Nov-20 12:13 33.857139 -118.308391 322 3808ft 109kts
30-Nov-20 12:14 33.880151 -118.331768 320 3808ft 107kts
30-Nov-20 12:15 33.900534 -118.351383 321 3809ft 107kts
30-Nov-20 12:16 33.923902 -118.373769 321 3809ft 107kts
30-Nov-20 12:17 33.947310 -118.396202 321 3809ft 107kts
30-Nov-20 12:19 33.970797 -118.418727 321 3809ft 107kts
30-Nov-20 12:20 33.994197 -118.441185 321 3809ft 107kts
30-Nov-20 12:21 34.016542 -118.464929 311 3810ft 107kts
30-Nov-20 12:22 34.036580 -118.491850 311 3809ft 107kts
30-Nov-20 12:23 34.056335 -118.518389 311 3808ft 106kts
30-Nov-20 12:24 34.076087 -118.544921 311 3809ft 106kts
30-Nov-20 12:25 34.095781 -118.571373 311 3804ft 106kts
30-Nov-20 12:26 34.115592 -118.597980 311 3799ft 106kts
30-Nov-20 12:27 34.135329 -118.624484 311 3799ft 106kts
30-Nov-20 12:28 34.155071 -118.650994 311 3799ft 106kts
30-Nov-20 12:29 34.180270 -118.648659 50 3812ft 105kts
30-Nov-20 12:30 34.198349 -118.620565 61 3795ft 102kts
30-Nov-20 12:31 34.201528 -118.590073 87 3798ft 88kts
30-Nov-20 12:32 34.201229 -118.560367 92 3794ft 88kts
30-Nov-20 12:33 34.199997 -118.531281 91 3430ft 86kts
30-Nov-20 12:34 34.199585 -118.501733 90 2974ft 89kts
30-Nov-20 12:34 34.199399 -118.476590 90 2554ft 90kts
30-Nov-20 12:36 34.198887 -118.441221 90 1987ft 89kts
30-Nov-20 12:37 34.198480 -118.411211 90 1511ft 89kts
30-Nov-20 12:37 34.198117 -118.386135 90 1115ft 88kts
30-Nov-20 12:38 34.197794 -118.360431 91 781ft 49kts
30-Nov-20 12:39 34.197065 -118.350035 211 781ft 16kts
30-Nov-20 12:41 34.197062 -118.353682 261 781ft 13kts

Navigation Log

Ident Type
Flight plan parsing failed, navigation log unavailable